Agadir Al Massira, Morocco
Current Conditions -  °F | °C
As of 9:30 PM on Tuesday 25 Nov 2014 (Local Time) from GMAD Reporting Station
Few Clouds Few Clouds  
Wind Chill: 63°   Ceiling: Unl
Heat Index: 63°   Visibility: 6mi
Dew Point: 59°   Wind: 6mph
Humidity: 88%   Direction: 160°SSE
Pressure: 30.06"   Gusts: NA
Location:  30.33°N, 9.4°W
Report Text: GMAD 252030Z 16005KT 120V190 9999 FEW020 17/15 Q1018 NOSIG
Loading
Personal Weather Stations






























Interactive Weather Map New forecast layout! Learn more

10-Day Weather Forecast

Advertisements
Track Severe Weather on mobile